Terminal Aerodrome Forecast
Issued by NWS

Home | Current Version | Previous Version | Text Only | Print | Product List | Glossary On
Versions: 1 2 3 4 5 6 7 8 9 10 11 12 13 14 15 16
479
FTUS46 KPDT 281120
TAFPSC
TAF
KPSC 281120Z 2812/2912 23008KT P6SM BKN090
     FM281600 20008KT P6SM SCT070
     FM290400 VRB04KT P6SM SCT250=

USA.gov is the U.S. government's official web portal to all federal, state and local government web resources and services.